sensor_id;sensor_type;location;lat;lon;timestamp;pressure;altitude;pressure_sealevel;temperature;humidity
75815;BME280;70031;45.570;14.228;2023-06-22T00:00:47;97394.53;;;16.73;100.00
75815;BME280;70031;45.570;14.228;2023-06-22T00:02:50;97403.31;;;16.70;100.00
75815;BME280;70031;45.570;14.228;2023-06-22T00:04:50;97406.06;;;16.79;100.00
75815;BME280;70031;45.570;14.228;2023-06-22T00:06:51;97396.19;;;16.83;100.00
75815;BME280;70031;45.570;14.228;2023-06-22T00:08:51;97398.88;;;16.83;100.00
75815;BME280;70031;45.570;14.228;2023-06-22T00:10:52;97401.13;;;16.81;100.00
75815;BME280;70031;45.570;14.228;2023-06-22T00:12:52;97411.16;;;16.72;100.00
75815;BME280;70031;45.570;14.228;2023-06-22T00:14:52;97399.25;;;16.59;100.00
75815;BME280;70031;45.570;14.228;2023-06-22T00:16:53;97406.44;;;16.55;100.00
75815;BME280;70031;45.570;14.228;2023-06-22T00:19:00;97401.78;;;16.24;100.00
75815;BME280;70031;45.570;14.228;2023-06-22T00:21:01;97406.78;;;16.31;100.00
75815;BME280;70031;45.570;14.228;2023-06-22T00:23:03;97403.25;;;16.31;100.00
75815;BME280;70031;45.570;14.228;2023-06-22T00:25:09;97410.41;;;16.26;100.00
75815;BME280;70031;45.570;14.228;2023-06-22T00:27:09;97405.47;;;16.28;100.00
75815;BME280;70031;45.570;14.228;2023-06-22T00:29:09;97398.69;;;16.40;100.00
75815;BME280;70031;45.570;14.228;2023-06-22T00:31:10;97399.84;;;16.47;100.00
75815;BME280;70031;45.570;14.228;2023-06-22T00:33:10;97402.88;;;16.54;100.00
75815;BME280;70031;45.570;14.228;2023-06-22T00:35:14;97397.13;;;16.47;100.00
75815;BME280;70031;45.570;14.228;2023-06-22T00:37:14;97399.47;;;16.40;100.00
75815;BME280;70031;45.570;14.228;2023-06-22T00:39:15;97400.84;;;16.29;100.00
75815;BME280;70031;45.570;14.228;2023-06-22T00:41:16;97390.44;;;16.22;100.00
75815;BME280;70031;45.570;14.228;2023-06-22T00:43:16;97395.19;;;16.17;100.00
75815;BME280;70031;45.570;14.228;2023-06-22T00:45:17;97400.66;;;16.25;100.00
75815;BME280;70031;45.570;14.228;2023-06-22T00:47:18;97403.13;;;16.13;100.00
75815;BME280;70031;45.570;14.228;2023-06-22T00:49:18;97396.75;;;16.09;100.00
75815;BME280;70031;45.570;14.228;2023-06-22T00:51:19;97397.53;;;16.10;100.00
75815;BME280;70031;45.570;14.228;2023-06-22T00:53:24;97396.41;;;15.88;100.00
75815;BME280;70031;45.570;14.228;2023-06-22T00:55:25;97392.47;;;15.94;100.00
75815;BME280;70031;45.570;14.228;2023-06-22T00:57:28;97390.50;;;15.86;100.00
75815;BME280;70031;45.570;14.228;2023-06-22T00:59:29;97387.19;;;15.89;100.00
75815;BME280;70031;45.570;14.228;2023-06-22T01:01:29;97381.94;;;15.93;100.00
75815;BME280;70031;45.570;14.228;2023-06-22T01:03:29;97384.22;;;15.99;100.00
75815;BME280;70031;45.570;14.228;2023-06-22T01:05:31;97387.00;;;16.08;100.00
75815;BME280;70031;45.570;14.228;2023-06-22T01:07:39;97387.59;;;16.05;100.00
75815;BME280;70031;45.570;14.228;2023-06-22T01:09:57;97381.25;;;16.10;100.00
75815;BME280;70031;45.570;14.228;2023-06-22T01:12:05;97388.53;;;16.00;100.00
75815;BME280;70031;45.570;14.228;2023-06-22T01:14:14;97379.41;;;15.96;100.00
75815;BME280;70031;45.570;14.228;2023-06-22T01:16:17;97382.63;;;15.98;100.00
75815;BME280;70031;45.570;14.228;2023-06-22T01:18:22;97377.78;;;15.95;100.00
75815;BME280;70031;45.570;14.228;2023-06-22T01:20:27;97381.19;;;15.79;100.00
75815;BME280;70031;45.570;14.228;2023-06-22T01:22:33;97377.31;;;15.93;100.00
75815;BME280;70031;45.570;14.228;2023-06-22T01:29:27;97370.75;;;15.72;100.00
75815;BME280;70031;45.570;14.228;2023-06-22T01:31:29;97370.00;;;15.58;100.00
75815;BME280;70031;45.570;14.228;2023-06-22T01:33:37;97382.25;;;15.69;100.00
75815;BME280;70031;45.570;14.228;2023-06-22T01:35:38;97374.00;;;15.74;100.00
75815;BME280;70031;45.570;14.228;2023-06-22T01:37:39;97374.00;;;15.74;100.00
75815;BME280;70031;45.570;14.228;2023-06-22T01:39:39;97375.59;;;15.75;100.00
75815;BME280;70031;45.570;14.228;2023-06-22T01:41:43;97371.94;;;15.80;100.00
75815;BME280;70031;45.570;14.228;2023-06-22T01:43:45;97365.91;;;15.83;100.00
75815;BME280;70031;45.570;14.228;2023-06-22T01:45:45;97375.34;;;15.85;100.00
75815;BME280;70031;45.570;14.228;2023-06-22T01:47:49;97368.31;;;15.84;100.00
75815;BME280;70031;45.570;14.228;2023-06-22T01:49:50;97367.19;;;15.85;100.00
75815;BME280;70031;45.570;14.228;2023-06-22T01:51:52;97369.41;;;15.83;100.00
75815;BME280;70031;45.570;14.228;2023-06-22T01:53:54;97370.97;;;15.76;100.00
75815;BME280;70031;45.570;14.228;2023-06-22T01:55:55;97371.66;;;15.81;100.00
75815;BME280;70031;45.570;14.228;2023-06-22T01:57:56;97377.19;;;15.76;100.00
75815;BME280;70031;45.570;14.228;2023-06-22T02:00:04;97371.75;;;15.76;100.00
75815;BME280;70031;45.570;14.228;2023-06-22T02:02:10;97375.75;;;15.79;100.00
75815;BME280;70031;45.570;14.228;2023-06-22T02:04:21;97375.03;;;15.51;100.00
75815;BME280;70031;45.570;14.228;2023-06-22T02:06:27;97364.00;;;15.11;100.00
75815;BME280;70031;45.570;14.228;2023-06-22T02:08:40;97377.44;;;15.16;100.00
75815;BME280;70031;45.570;14.228;2023-06-22T02:10:42;97366.28;;;15.31;100.00
75815;BME280;70031;45.570;14.228;2023-06-22T02:12:44;97360.72;;;15.36;100.00
75815;BME280;70031;45.570;14.228;2023-06-22T02:14:51;97366.06;;;15.28;100.00
75815;BME280;70031;45.570;14.228;2023-06-22T02:16:52;97350.03;;;15.17;100.00
75815;BME280;70031;45.570;14.228;2023-06-22T02:18:52;97356.88;;;15.15;100.00
75815;BME280;70031;45.570;14.228;2023-06-22T02:20:53;97358.06;;;15.09;100.00
75815;BME280;70031;45.570;14.228;2023-06-22T02:22:53;97357.19;;;15.00;100.00
75815;BME280;70031;45.570;14.228;2023-06-22T02:24:54;97357.69;;;15.02;100.00
75815;BME280;70031;45.570;14.228;2023-06-22T02:26:54;97351.56;;;14.96;100.00
75815;BME280;70031;45.570;14.228;2023-06-22T02:28:54;97358.91;;;14.96;100.00
75815;BME280;70031;45.570;14.228;2023-06-22T02:30:55;97356.00;;;14.92;100.00
75815;BME280;70031;45.570;14.228;2023-06-22T02:32:55;97362.84;;;14.89;100.00
75815;BME280;70031;45.570;14.228;2023-06-22T02:34:58;97356.81;;;14.93;100.00
75815;BME280;70031;45.570;14.228;2023-06-22T02:36:59;97354.78;;;14.98;100.00
75815;BME280;70031;45.570;14.228;2023-06-22T02:39:03;97352.66;;;14.95;100.00
75815;BME280;70031;45.570;14.228;2023-06-22T02:41:03;97339.13;;;14.95;100.00
75815;BME280;70031;45.570;14.228;2023-06-22T02:43:04;97342.41;;;15.06;100.00
75815;BME280;70031;45.570;14.228;2023-06-22T02:45:05;97348.34;;;15.08;100.00
75815;BME280;70031;45.570;14.228;2023-06-22T02:47:05;97358.97;;;15.18;100.00
75815;BME280;70031;45.570;14.228;2023-06-22T02:49:05;97362.38;;;15.24;100.00
75815;BME280;70031;45.570;14.228;2023-06-22T02:51:09;97353.84;;;15.16;100.00
75815;BME280;70031;45.570;14.228;2023-06-22T02:53:09;97350.44;;;14.97;100.00
75815;BME280;70031;45.570;14.228;2023-06-22T02:55:10;97353.41;;;14.73;100.00
75815;BME280;70031;45.570;14.228;2023-06-22T02:57:10;97359.31;;;14.75;100.00
75815;BME280;70031;45.570;14.228;2023-06-22T02:59:13;97351.59;;;14.82;100.00
75815;BME280;70031;45.570;14.228;2023-06-22T03:01:14;97347.47;;;14.85;100.00
75815;BME280;70031;45.570;14.228;2023-06-22T03:03:14;97352.00;;;14.89;100.00
75815;BME280;70031;45.570;14.228;2023-06-22T03:05:15;97357.28;;;14.95;100.00
75815;BME280;70031;45.570;14.228;2023-06-22T03:07:18;97359.50;;;14.93;100.00
75815;BME280;70031;45.570;14.228;2023-06-22T03:09:18;97354.31;;;14.82;100.00
75815;BME280;70031;45.570;14.228;2023-06-22T03:11:19;97348.69;;;14.79;100.00
75815;BME280;70031;45.570;14.228;2023-06-22T03:13:19;97345.56;;;14.72;100.00
75815;BME280;70031;45.570;14.228;2023-06-22T03:15:19;97350.09;;;14.76;100.00
75815;BME280;70031;45.570;14.228;2023-06-22T03:17:20;97353.19;;;14.83;100.00
75815;BME280;70031;45.570;14.228;2023-06-22T03:19:20;97346.56;;;14.89;100.00
75815;BME280;70031;45.570;14.228;2023-06-22T03:21:22;97346.38;;;14.86;100.00
75815;BME280;70031;45.570;14.228;2023-06-22T03:23:23;97354.19;;;14.87;100.00
75815;BME280;70031;45.570;14.228;2023-06-22T03:25:23;97342.84;;;14.85;100.00
75815;BME280;70031;45.570;14.228;2023-06-22T03:27:24;97351.47;;;14.87;100.00
75815;BME280;70031;45.570;14.228;2023-06-22T03:29:25;97348.28;;;14.85;100.00
75815;BME280;70031;45.570;14.228;2023-06-22T03:31:25;97355.50;;;14.90;100.00
75815;BME280;70031;45.570;14.228;2023-06-22T03:33:26;97365.72;;;15.07;100.00
75815;BME280;70031;45.570;14.228;2023-06-22T03:35:26;97366.94;;;15.01;100.00
75815;BME280;70031;45.570;14.228;2023-06-22T03:37:27;97369.91;;;15.13;100.00
75815;BME280;70031;45.570;14.228;2023-06-22T03:39:27;97366.69;;;15.25;100.00
75815;BME280;70031;45.570;14.228;2023-06-22T03:41:28;97369.19;;;15.21;100.00
75815;BME280;70031;45.570;14.228;2023-06-22T03:43:28;97360.25;;;15.21;100.00
75815;BME280;70031;45.570;14.228;2023-06-22T03:45:29;97370.53;;;15.10;100.00
75815;BME280;70031;45.570;14.228;2023-06-22T03:47:29;97361.38;;;15.06;100.00
75815;BME280;70031;45.570;14.228;2023-06-22T03:49:29;97363.28;;;15.05;100.00
75815;BME280;70031;45.570;14.228;2023-06-22T03:51:30;97359.41;;;14.84;100.00
75815;BME280;70031;45.570;14.228;2023-06-22T03:53:31;97366.56;;;14.66;100.00
75815;BME280;70031;45.570;14.228;2023-06-22T03:55:34;97377.28;;;14.85;100.00
75815;BME280;70031;45.570;14.228;2023-06-22T03:57:35;97360.13;;;14.89;100.00
75815;BME280;70031;45.570;14.228;2023-06-22T03:59:35;97363.50;;;15.09;100.00
75815;BME280;70031;45.570;14.228;2023-06-22T04:01:36;97349.63;;;15.10;100.00
75815;BME280;70031;45.570;14.228;2023-06-22T04:03:38;97344.72;;;15.12;100.00
75815;BME280;70031;45.570;14.228;2023-06-22T04:05:39;97344.63;;;15.04;100.00
75815;BME280;70031;45.570;14.228;2023-06-22T04:07:39;97350.88;;;14.91;100.00
75815;BME280;70031;45.570;14.228;2023-06-22T04:09:40;97350.88;;;14.91;100.00
75815;BME280;70031;45.570;14.228;2023-06-22T04:11:40;97346.94;;;14.97;100.00
75815;BME280;70031;45.570;14.228;2023-06-22T04:13:40;97359.28;;;14.89;100.00
75815;BME280;70031;45.570;14.228;2023-06-22T04:15:41;97359.91;;;15.00;100.00
75815;BME280;70031;45.570;14.228;2023-06-22T04:17:41;97348.84;;;15.10;100.00
75815;BME280;70031;45.570;14.228;2023-06-22T04:19:42;97349.22;;;15.17;100.00
75815;BME280;70031;45.570;14.228;2023-06-22T04:21:43;97352.91;;;15.21;100.00
75815;BME280;70031;45.570;14.228;2023-06-22T04:23:44;97354.66;;;15.17;100.00
75815;BME280;70031;45.570;14.228;2023-06-22T04:25:46;97343.81;;;15.17;100.00
75815;BME280;70031;45.570;14.228;2023-06-22T04:27:47;97356.81;;;15.29;100.00
75815;BME280;70031;45.570;14.228;2023-06-22T04:29:47;97357.41;;;15.39;100.00
75815;BME280;70031;45.570;14.228;2023-06-22T04:31:48;97358.22;;;15.40;100.00
75815;BME280;70031;45.570;14.228;2023-06-22T04:33:50;97362.75;;;15.31;100.00
75815;BME280;70031;45.570;14.228;2023-06-22T04:35:51;97361.44;;;15.28;100.00
75815;BME280;70031;45.570;14.228;2023-06-22T04:37:53;97357.59;;;15.43;100.00
75815;BME280;70031;45.570;14.228;2023-06-22T04:39:54;97353.84;;;15.53;100.00
75815;BME280;70031;45.570;14.228;2023-06-22T04:41:55;97369.63;;;15.51;100.00
75815;BME280;70031;45.570;14.228;2023-06-22T04:44:00;97366.91;;;15.64;100.00
75815;BME280;70031;45.570;14.228;2023-06-22T04:46:00;97372.88;;;15.75;100.00
75815;BME280;70031;45.570;14.228;2023-06-22T04:48:04;97360.66;;;15.86;100.00
75815;BME280;70031;45.570;14.228;2023-06-22T04:50:05;97364.00;;;15.83;100.00
75815;BME280;70031;45.570;14.228;2023-06-22T04:52:07;97365.28;;;15.86;100.00
75815;BME280;70031;45.570;14.228;2023-06-22T04:54:09;97363.72;;;15.93;100.00
75815;BME280;70031;45.570;14.228;2023-06-22T04:56:09;97364.38;;;15.90;100.00
75815;BME280;70031;45.570;14.228;2023-06-22T04:58:10;97373.25;;;16.13;100.00
75815;BME280;70031;45.570;14.228;2023-06-22T05:00:13;97365.19;;;16.22;100.00
75815;BME280;70031;45.570;14.228;2023-06-22T05:02:22;97358.84;;;16.35;100.00
75815;BME280;70031;45.570;14.228;2023-06-22T05:04:29;97363.53;;;16.43;100.00
75815;BME280;70031;45.570;14.228;2023-06-22T05:06:31;97361.66;;;16.52;100.00
75815;BME280;70031;45.570;14.228;2023-06-22T05:08:31;97367.31;;;16.65;100.00
75815;BME280;70031;45.570;14.228;2023-06-22T05:10:33;97360.34;;;16.72;100.00
75815;BME280;70031;45.570;14.228;2023-06-22T05:12:33;97358.91;;;16.75;100.00
75815;BME280;70031;45.570;14.228;2023-06-22T05:14:35;97360.38;;;16.90;100.00
75815;BME280;70031;45.570;14.228;2023-06-22T05:16:36;97370.75;;;16.96;100.00
75815;BME280;70031;45.570;14.228;2023-06-22T05:18:36;97363.44;;;16.97;100.00
75815;BME280;70031;45.570;14.228;2023-06-22T05:20:37;97366.53;;;17.21;100.00
75815;BME280;70031;45.570;14.228;2023-06-22T05:22:38;97364.28;;;17.32;100.00
75815;BME280;70031;45.570;14.228;2023-06-22T05:24:39;97367.97;;;17.45;100.00
75815;BME280;70031;45.570;14.228;2023-06-22T05:26:41;97365.44;;;17.57;100.00
75815;BME280;70031;45.570;14.228;2023-06-22T05:28:42;97363.97;;;17.51;100.00
75815;BME280;70031;45.570;14.228;2023-06-22T05:30:46;97361.94;;;17.74;100.00
75815;BME280;70031;45.570;14.228;2023-06-22T05:32:48;97359.66;;;17.93;100.00
75815;BME280;70031;45.570;14.228;2023-06-22T05:34:49;97364.78;;;17.68;100.00
75815;BME280;70031;45.570;14.228;2023-06-22T05:36:52;97352.25;;;18.02;100.00
75815;BME280;70031;45.570;14.228;2023-06-22T05:38:53;97363.09;;;18.28;100.00
75815;BME280;70031;45.570;14.228;2023-06-22T05:40:53;97362.19;;;18.62;100.00
75815;BME280;70031;45.570;14.228;2023-06-22T05:42:54;97371.47;;;18.70;100.00
75815;BME280;70031;45.570;14.228;2023-06-22T05:44:57;97368.44;;;19.01;99.81
75815;BME280;70031;45.570;14.228;2023-06-22T05:47:02;97366.16;;;19.03;100.00
75815;BME280;70031;45.570;14.228;2023-06-22T05:49:03;97357.72;;;18.96;100.00
75815;BME280;70031;45.570;14.228;2023-06-22T05:51:03;97358.94;;;19.57;96.38
75815;BME280;70031;45.570;14.228;2023-06-22T05:53:18;97362.50;;;20.24;91.61
75815;BME280;70031;45.570;14.228;2023-06-22T05:55:18;97355.47;;;21.85;87.47
75815;BME280;70031;45.570;14.228;2023-06-22T05:57:19;97357.34;;;22.85;80.42
75815;BME280;70031;45.570;14.228;2023-06-22T05:59:22;97352.69;;;21.29;83.09
75815;BME280;70031;45.570;14.228;2023-06-22T06:01:22;97340.22;;;21.72;83.40
75815;BME280;70031;45.570;14.228;2023-06-22T06:03:25;97354.16;;;23.69;74.67
75815;BME280;70031;45.570;14.228;2023-06-22T06:05:33;97354.47;;;24.45;70.61
75815;BME280;70031;45.570;14.228;2023-06-22T06:07:36;97345.06;;;24.07;73.10
75815;BME280;70031;45.570;14.228;2023-06-22T06:09:40;97345.84;;;24.46;71.46
75815;BME280;70031;45.570;14.228;2023-06-22T06:11:41;97346.22;;;24.25;69.95
75815;BME280;70031;45.570;14.228;2023-06-22T06:13:46;97336.03;;;23.13;73.45
75815;BME280;70031;45.570;14.228;2023-06-22T06:15:49;97345.56;;;22.68;77.82
75815;BME280;70031;45.570;14.228;2023-06-22T06:17:55;97341.53;;;22.82;77.14
75815;BME280;70031;45.570;14.228;2023-06-22T06:20:04;97340.53;;;23.21;73.77
75815;BME280;70031;45.570;14.228;2023-06-22T06:22:13;97338.94;;;23.20;76.43
75815;BME280;70031;45.570;14.228;2023-06-22T06:24:17;97328.34;;;23.38;78.08
75815;BME280;70031;45.570;14.228;2023-06-22T06:26:20;97327.09;;;24.78;68.90
75815;BME280;70031;45.570;14.228;2023-06-22T06:28:31;97326.97;;;23.29;75.13
75815;BME280;70031;45.570;14.228;2023-06-22T06:30:34;97323.34;;;23.24;75.79
75815;BME280;70031;45.570;14.228;2023-06-22T06:32:37;97324.78;;;24.57;70.75
75815;BME280;70031;45.570;14.228;2023-06-22T06:34:40;97324.34;;;25.58;70.24
75815;BME280;70031;45.570;14.228;2023-06-22T06:36:41;97314.75;;;26.49;64.07
75815;BME280;70031;45.570;14.228;2023-06-22T06:38:41;97319.91;;;27.02;62.24
75815;BME280;70031;45.570;14.228;2023-06-22T06:40:42;97319.75;;;25.09;66.43
75815;BME280;70031;45.570;14.228;2023-06-22T06:42:46;97320.84;;;25.91;64.92
75815;BME280;70031;45.570;14.228;2023-06-22T06:44:47;97319.94;;;26.17;64.56
75815;BME280;70031;45.570;14.228;2023-06-22T06:46:50;97320.88;;;25.94;64.55
75815;BME280;70031;45.570;14.228;2023-06-22T06:48:54;97322.63;;;26.10;66.19
75815;BME280;70031;45.570;14.228;2023-06-22T06:50:57;97319.97;;;26.57;68.74
75815;BME280;70031;45.570;14.228;2023-06-22T06:52:58;97321.56;;;27.10;63.74
75815;BME280;70031;45.570;14.228;2023-06-22T06:54:59;97319.16;;;27.74;60.99
75815;BME280;70031;45.570;14.228;2023-06-22T06:57:00;97320.34;;;27.80;60.52
75815;BME280;70031;45.570;14.228;2023-06-22T06:59:09;97320.41;;;27.91;58.62
75815;BME280;70031;45.570;14.228;2023-06-22T07:01:12;97318.28;;;27.59;62.94
75815;BME280;70031;45.570;14.228;2023-06-22T07:03:15;97318.44;;;27.95;58.19
75815;BME280;70031;45.570;14.228;2023-06-22T07:05:18;97312.13;;;27.91;59.79
75815;BME280;70031;45.570;14.228;2023-06-22T07:07:21;97314.78;;;27.69;60.63
75815;BME280;70031;45.570;14.228;2023-06-22T07:09:21;97308.63;;;28.15;59.08
75815;BME280;70031;45.570;14.228;2023-06-22T07:11:22;97306.31;;;28.39;56.90
75815;BME280;70031;45.570;14.228;2023-06-22T07:13:22;97310.63;;;28.29;59.78
75815;BME280;70031;45.570;14.228;2023-06-22T07:15:25;97305.91;;;28.33;57.01
75815;BME280;70031;45.570;14.228;2023-06-22T07:17:31;97308.47;;;26.52;59.00
75815;BME280;70031;45.570;14.228;2023-06-22T07:19:32;97308.59;;;26.25;61.72
75815;BME280;70031;45.570;14.228;2023-06-22T07:21:35;97305.38;;;26.20;62.75
75815;BME280;70031;45.570;14.228;2023-06-22T07:23:36;97299.31;;;26.96;62.94
75815;BME280;70031;45.570;14.228;2023-06-22T07:25:41;97307.75;;;27.13;59.58
75815;BME280;70031;45.570;14.228;2023-06-22T07:28:00;97299.22;;;25.06;66.21
75815;BME280;70031;45.570;14.228;2023-06-22T07:30:13;97302.31;;;26.28;61.57
75815;BME280;70031;45.570;14.228;2023-06-22T07:32:16;97302.81;;;26.00;62.36
75815;BME280;70031;45.570;14.228;2023-06-22T07:34:21;97309.31;;;26.19;64.22
75815;BME280;70031;45.570;14.228;2023-06-22T07:36:22;97302.94;;;26.15;65.22
75815;BME280;70031;45.570;14.228;2023-06-22T07:38:25;97298.53;;;26.92;62.22
75815;BME280;70031;45.570;14.228;2023-06-22T07:40:29;97296.25;;;27.74;64.36
75815;BME280;70031;45.570;14.228;2023-06-22T07:42:29;97306.09;;;26.50;65.34
75815;BME280;70031;45.570;14.228;2023-06-22T07:44:36;97301.81;;;27.81;63.44
75815;BME280;70031;45.570;14.228;2023-06-22T07:46:41;97303.94;;;28.69;59.59
75815;BME280;70031;45.570;14.228;2023-06-22T07:48:51;97300.78;;;29.06;56.67
75815;BME280;70031;45.570;14.228;2023-06-22T07:50:57;97307.13;;;29.07;60.83
75815;BME280;70031;45.570;14.228;2023-06-22T07:53:05;97298.81;;;29.14;54.23
75815;BME280;70031;45.570;14.228;2023-06-22T07:55:05;97305.53;;;29.17;59.00
75815;BME280;70031;45.570;14.228;2023-06-22T07:57:13;97309.88;;;28.71;55.04
75815;BME280;70031;45.570;14.228;2023-06-22T07:59:24;97306.69;;;29.12;59.59
75815;BME280;70031;45.570;14.228;2023-06-22T08:01:42;97305.50;;;29.24;55.06
75815;BME280;70031;45.570;14.228;2023-06-22T08:03:45;97305.94;;;28.76;60.13
75815;BME280;70031;45.570;14.228;2023-06-22T08:06:05;97300.56;;;27.02;62.87
75815;BME280;70031;45.570;14.228;2023-06-22T08:08:11;97297.59;;;26.73;63.13
75815;BME280;70031;45.570;14.228;2023-06-22T08:10:12;97299.94;;;27.23;64.76
75815;BME280;70031;45.570;14.228;2023-06-22T08:12:13;97300.78;;;28.89;62.27
75815;BME280;70031;45.570;14.228;2023-06-22T08:14:13;97302.16;;;29.82;57.98
75815;BME280;70031;45.570;14.228;2023-06-22T08:16:14;97305.72;;;29.83;53.17
75815;BME280;70031;45.570;14.228;2023-06-22T08:18:15;97317.19;;;29.85;55.95
75815;BME280;70031;45.570;14.228;2023-06-22T08:20:16;97313.69;;;29.70;53.84
75815;BME280;70031;45.570;14.228;2023-06-22T08:22:17;97305.97;;;28.90;57.56
75815;BME280;70031;45.570;14.228;2023-06-22T08:24:20;97317.03;;;28.65;62.23
75815;BME280;70031;45.570;14.228;2023-06-22T08:26:20;97304.75;;;28.70;59.33
75815;BME280;70031;45.570;14.228;2023-06-22T08:28:22;97311.78;;;28.21;59.65
75815;BME280;70031;45.570;14.228;2023-06-22T08:30:22;97304.28;;;28.18;60.82
75815;BME280;70031;45.570;14.228;2023-06-22T08:32:22;97305.16;;;29.07;57.45
75815;BME280;70031;45.570;14.228;2023-06-22T08:34:25;97301.19;;;28.51;60.81
75815;BME280;70031;45.570;14.228;2023-06-22T08:36:28;97299.22;;;28.91;59.89
75815;BME280;70031;45.570;14.228;2023-06-22T08:38:32;97304.34;;;28.86;59.95
75815;BME280;70031;45.570;14.228;2023-06-22T08:40:33;97297.22;;;29.02;59.95
75815;BME280;70031;45.570;14.228;2023-06-22T08:42:36;97299.59;;;28.54;62.15
75815;BME280;70031;45.570;14.228;2023-06-22T08:44:45;97292.84;;;29.19;59.52
75815;BME280;70031;45.570;14.228;2023-06-22T08:46:45;97294.84;;;30.17;55.70
75815;BME280;70031;45.570;14.228;2023-06-22T08:48:46;97284.94;;;30.75;58.45
75815;BME280;70031;45.570;14.228;2023-06-22T08:50:46;97281.66;;;31.28;56.08
75815;BME280;70031;45.570;14.228;2023-06-22T08:52:47;97277.63;;;31.33;55.72
75815;BME280;70031;45.570;14.228;2023-06-22T08:54:47;97270.41;;;31.39;49.38
75815;BME280;70031;45.570;14.228;2023-06-22T08:56:51;97264.63;;;31.57;54.75
75815;BME280;70031;45.570;14.228;2023-06-22T08:58:51;97269.31;;;31.64;49.19
75815;BME280;70031;45.570;14.228;2023-06-22T09:00:52;97265.66;;;30.54;54.22
75815;BME280;70031;45.570;14.228;2023-06-22T09:02:52;97263.56;;;31.10;53.79
75815;BME280;70031;45.570;14.228;2023-06-22T09:04:53;97260.47;;;30.52;51.75
75815;BME280;70031;45.570;14.228;2023-06-22T09:06:55;97257.31;;;29.91;53.33
75815;BME280;70031;45.570;14.228;2023-06-22T09:08:56;97253.84;;;29.73;53.67
75815;BME280;70031;45.570;14.228;2023-06-22T09:10:56;97261.22;;;30.04;56.37
75815;BME280;70031;45.570;14.228;2023-06-22T09:12:57;97252.66;;;30.88;55.67
75815;BME280;70031;45.570;14.228;2023-06-22T09:14:57;97247.38;;;29.97;51.71
75815;BME280;70031;45.570;14.228;2023-06-22T09:16:59;97257.16;;;30.19;54.86
75815;BME280;70031;45.570;14.228;2023-06-22T09:19:02;97257.19;;;31.09;50.29
75815;BME280;70031;45.570;14.228;2023-06-22T09:21:03;97250.66;;;30.40;52.06
75815;BME280;70031;45.570;14.228;2023-06-22T09:23:03;97250.69;;;29.71;53.02
75815;BME280;70031;45.570;14.228;2023-06-22T09:25:04;97253.50;;;29.60;51.94
75815;BME280;70031;45.570;14.228;2023-06-22T09:27:05;97246.13;;;29.18;53.18
75815;BME280;70031;45.570;14.228;2023-06-22T09:29:08;97254.34;;;29.43;52.36
75815;BME280;70031;45.570;14.228;2023-06-22T09:31:09;97245.66;;;30.73;56.03
75815;BME280;70031;45.570;14.228;2023-06-22T09:36:07;97255.97;;;32.39;52.22
75815;BME280;70031;45.570;14.228;2023-06-22T09:38:07;97253.56;;;32.65;53.01
75815;BME280;70031;45.570;14.228;2023-06-22T09:40:46;97250.22;;;31.66;54.93
75815;BME280;70031;45.570;14.228;2023-06-22T09:42:49;97248.41;;;32.40;50.58
75815;BME280;70031;45.570;14.228;2023-06-22T09:44:58;97256.88;;;32.33;52.84
75815;BME280;70031;45.570;14.228;2023-06-22T09:47:06;97260.81;;;31.06;48.02
75815;BME280;70031;45.570;14.228;2023-06-22T09:49:09;97254.19;;;30.93;54.82
75815;BME280;70031;45.570;14.228;2023-06-22T09:51:12;97253.47;;;30.37;52.30
75815;BME280;70031;45.570;14.228;2023-06-22T09:53:24;97239.44;;;30.55;54.31
75815;BME280;70031;45.570;14.228;2023-06-22T09:55:27;97246.25;;;30.95;53.08
75815;BME280;70031;45.570;14.228;2023-06-22T09:57:35;97243.00;;;31.68;50.03
75815;BME280;70031;45.570;14.228;2023-06-22T09:59:38;97248.97;;;32.28;54.74
75815;BME280;70031;45.570;14.228;2023-06-22T10:01:54;97242.72;;;32.20;48.07
75815;BME280;70031;45.570;14.228;2023-06-22T10:03:55;97241.72;;;31.80;55.95
75815;BME280;70031;45.570;14.228;2023-06-22T10:05:56;97245.56;;;31.90;51.99
75815;BME280;70031;45.570;14.228;2023-06-22T10:07:57;97243.31;;;31.47;52.48
75815;BME280;70031;45.570;14.228;2023-06-22T10:09:57;97245.50;;;31.63;54.33
75815;BME280;70031;45.570;14.228;2023-06-22T10:11:57;97242.97;;;31.72;54.18
75815;BME280;70031;45.570;14.228;2023-06-22T10:13:58;97251.66;;;32.08;52.04
75815;BME280;70031;45.570;14.228;2023-06-22T10:15:58;97240.72;;;32.21;53.23
75815;BME280;70031;45.570;14.228;2023-06-22T10:17:58;97249.13;;;31.90;50.44
75815;BME280;70031;45.570;14.228;2023-06-22T10:20:00;97244.13;;;31.06;54.70
75815;BME280;70031;45.570;14.228;2023-06-22T10:22:05;97249.41;;;31.35;55.28
75815;BME280;70031;45.570;14.228;2023-06-22T10:24:06;97239.34;;;31.78;50.48
75815;BME280;70031;45.570;14.228;2023-06-22T10:26:06;97239.97;;;31.59;52.48
75815;BME280;70031;45.570;14.228;2023-06-22T10:28:06;97240.50;;;31.13;51.07
75815;BME280;70031;45.570;14.228;2023-06-22T10:30:08;97234.56;;;31.75;51.83
75815;BME280;70031;45.570;14.228;2023-06-22T10:32:09;97236.47;;;32.39;46.79
75815;BME280;70031;45.570;14.228;2023-06-22T10:34:16;97230.81;;;32.20;49.46
75815;BME280;70031;45.570;14.228;2023-06-22T10:36:24;97227.69;;;31.22;53.69
75815;BME280;70031;45.570;14.228;2023-06-22T10:38:24;97231.31;;;31.53;52.04
75815;BME280;70031;45.570;14.228;2023-06-22T10:40:24;97237.72;;;32.35;52.76
75815;BME280;70031;45.570;14.228;2023-06-22T10:42:25;97233.47;;;32.00;55.06
75815;BME280;70031;45.570;14.228;2023-06-22T10:44:25;97234.22;;;32.04;53.47